Ocean City, Maryland
Current Conditions -  °F | °C
As of 12:53 PM on Thursday 29 Jan 2015 (Local Time) from KOXB Reporting Station
Clear Clear  
Wind Chill: -2°   Ceiling: Unl
Heat Index:   Visibility: 10mi
Dew Point: -7°   Wind: 6mph
Humidity: 56%   Direction: 190°S
Pressure: 30.25"   Gusts: NA
Location:  38.34°N, 75.08°W
Report Text: KOXB 291753Z AUTO 19005KT 10SM CLR 01/M07 A3025 RMK AO2 SLP243 T00111067 10017 21067 58029 TSNO
Loading
Personal Weather Stations






























Interactive Weather Map New forecast layout! Learn more

10-Day Weather Forecast

Advertisements
Track Severe Weather on mobile